Time,TemperatureF,DewpointF,PressureIn,WindDirection,WindDirectionDegrees,WindSpeedMPH,WindSpeedGustMPH,Humidity,HourlyPrecipIn,Conditions,Clouds,dailyrainin,SoftwareType,DateUTC
2013-06-06 00:04:00,70.9,51.3,29.89,SW,225,5.3,-999.0,50,-99.99,,,0.00,Acu-Link.com,2013-06-06 04:04:00,
2013-06-06 00:20:00,70.9,51.3,29.88,South,180,3.2,-999.0,50,-99.99,,,0.00,Acu-Link.com,2013-06-06 04:20:00,
2013-06-06 00:35:00,70.5,51.5,29.90,SSE,157,2.7,-999.0,51,-99.99,,,0.00,Acu-Link.com,2013-06-06 04:35:00,
2013-06-06 00:50:00,70.3,51.3,29.90,SSW,202,4.7,-999.0,51,-99.99,,,0.00,Acu-Link.com,2013-06-06 04:50:00,
2013-06-06 01:05:00,70.3,51.8,29.89,South,180,2.7,-999.0,52,-99.99,,,0.00,Acu-Link.com,2013-06-06 05:05:00,
2013-06-06 01:20:00,70.5,52.0,29.88,SSW,202,5.3,-999.0,52,-99.99,,,0.00,Acu-Link.com,2013-06-06 05:20:00,
2013-06-06 01:35:00,70.5,52.0,29.88,South,180,5.3,-999.0,52,-99.99,,,0.00,Acu-Link.com,2013-06-06 05:35:00,
2013-06-06 01:51:00,70.2,52.3,29.88,ESE,112,3.7,-999.0,53,-99.99,,,0.00,Acu-Link.com,2013-06-06 05:51:00,
2013-06-06 02:06:00,70.0,52.1,29.86,ENE,67,5.8,-999.0,53,-99.99,,,0.00,Acu-Link.com,2013-06-06 06:06:00,
2013-06-06 02:21:00,70.0,52.1,29.87,SSE,157,4.7,-999.0,53,-99.99,,,0.00,Acu-Link.com,2013-06-06 06:21:00,
2013-06-06 02:51:00,69.4,52.0,29.87,SSE,157,3.7,-999.0,54,-99.99,,,0.00,Acu-Link.com,2013-06-06 06:51:00,
2013-06-06 03:06:00,69.3,51.9,29.87,NE,45,4.7,-999.0,54,-99.99,,,0.00,Acu-Link.com,2013-06-06 07:06:00,
2013-06-06 03:22:00,68.9,52.1,29.87,SE,135,3.7,-999.0,55,-99.99,,,0.00,Acu-Link.com,2013-06-06 07:22:00,
2013-06-06 03:37:00,68.7,51.9,29.85,ESE,112,3.7,-999.0,55,-99.99,,,0.00,Acu-Link.com,2013-06-06 07:37:00,
2013-06-06 03:52:00,68.5,52.2,29.85,SSE,157,3.7,-999.0,56,-99.99,,,0.00,Acu-Link.com,2013-06-06 07:52:00,
2013-06-06 04:07:00,68.4,52.6,29.85,SSE,157,3.7,-999.0,57,-99.99,,,0.00,Acu-Link.com,2013-06-06 08:07:00,
2013-06-06 04:23:00,68.4,52.6,29.85,SE,135,3.7,-999.0,57,-99.99,,,0.00,Acu-Link.com,2013-06-06 08:23:00,
2013-06-06 04:38:00,68.4,52.6,29.86,ESE,112,4.7,-999.0,57,-99.99,,,0.00,Acu-Link.com,2013-06-06 08:38:00,
2013-06-06 04:53:00,68.2,52.9,29.85,SE,135,3.7,-999.0,58,-99.99,,,0.00,Acu-Link.com,2013-06-06 08:53:00,
2013-06-06 05:08:00,68.0,52.7,29.84,ESE,112,6.8,-999.0,58,-99.99,,,0.00,Acu-Link.com,2013-06-06 09:08:00,
2013-06-06 05:23:00,67.6,52.3,29.85,NW,315,1.7,-999.0,58,-99.99,,,0.00,Acu-Link.com,2013-06-06 09:23:00,
2013-06-06 05:38:00,67.5,52.2,29.84,NE,45,6.8,-999.0,58,-99.99,,,0.00,Acu-Link.com,2013-06-06 09:38:00,
2013-06-06 05:54:00,67.5,51.2,29.84,SSE,157,3.7,-999.0,56,-99.99,,,0.00,Acu-Link.com,2013-06-06 09:54:00,
2013-06-06 06:09:00,67.5,50.8,29.85,ESE,112,3.7,-999.0,55,-99.99,,,0.00,Acu-Link.com,2013-06-06 10:09:00,
2013-06-06 06:24:00,67.5,49.8,29.86,ESE,112,2.7,-999.0,53,-99.99,,,0.00,Acu-Link.com,2013-06-06 10:24:00,
2013-06-06 06:39:00,67.3,49.6,29.85,SSE,157,1.7,-999.0,53,-99.99,,,0.00,Acu-Link.com,2013-06-06 10:39:00,
2013-06-06 06:54:00,67.6,48.3,29.85,SW,225,7.3,-999.0,50,-99.99,,,0.00,Acu-Link.com,2013-06-06 10:54:00,
2013-06-06 07:09:00,67.6,47.8,29.85,ESE,112,4.2,-999.0,49,-99.99,,,0.00,Acu-Link.com,2013-06-06 11:09:00,
2013-06-06 07:24:00,67.5,47.7,29.85,ENE,67,2.2,-999.0,49,-99.99,,,0.00,Acu-Link.com,2013-06-06 11:24:00,
2013-06-06 07:39:00,67.1,48.9,29.85,ESE,112,2.2,-999.0,52,-99.99,,,0.00,Acu-Link.com,2013-06-06 11:39:00,
2013-06-06 07:55:00,66.7,49.0,29.85,ESE,112,2.2,-999.0,53,-99.99,,,0.00,Acu-Link.com,2013-06-06 11:55:00,
2013-06-06 08:10:00,64.0,48.9,29.85,NE,45,2.2,-999.0,58,-99.99,,,0.00,Acu-Link.com,2013-06-06 12:10:00,
2013-06-06 08:25:00,63.0,48.9,29.86,NNE,22,1.1,-999.0,60,-99.99,,,0.00,Acu-Link.com,2013-06-06 12:25:00,
2013-06-06 08:40:00,61.9,49.6,29.85,WNW,292,2.2,-999.0,64,-99.99,,,0.00,Acu-Link.com,2013-06-06 12:40:00,
2013-06-06 08:55:00,61.2,48.9,29.86,NE,45,1.7,-999.0,64,-99.99,,,0.00,Acu-Link.com,2013-06-06 12:55:00,
2013-06-06 09:10:00,61.3,50.2,29.85,NNE,22,2.7,-999.0,67,-99.99,,,0.00,Acu-Link.com,2013-06-06 13:10:00,
2013-06-06 09:25:00,62.2,49.0,29.86,NE,45,3.7,-999.0,62,-99.99,,,0.00,Acu-Link.com,2013-06-06 13:25:00,
2013-06-06 09:40:00,62.8,47.3,29.85,ESE,112,1.1,-999.0,57,-99.99,,,0.01,Acu-Link.com,2013-06-06 13:40:00,
2013-06-06 09:56:00,60.8,51.3,29.84,NNW,337,3.7,-999.0,71,-99.99,,,0.01,Acu-Link.com,2013-06-06 13:56:00,
2013-06-06 10:11:00,62.2,50.3,29.84,East,90,3.2,-999.0,65,-99.99,,,0.01,Acu-Link.com,2013-06-06 14:11:00,
2013-06-06 10:41:00,63.9,48.8,29.83,SSE,157,0.0,-999.0,58,-99.99,,,0.01,Acu-Link.com,2013-06-06 14:41:00,
2013-06-06 11:11:00,64.9,48.3,29.83,South,180,2.2,-999.0,55,-99.99,,,0.01,Acu-Link.com,2013-06-06 15:11:00,
2013-06-06 11:26:00,66.0,47.3,29.82,NNE,22,5.8,-999.0,51,-99.99,,,0.01,Acu-Link.com,2013-06-06 15:26:00,
2013-06-06 11:41:00,66.2,48.0,29.82,SE,135,4.2,-999.0,52,-99.99,,,0.01,Acu-Link.com,2013-06-06 15:41:00,
2013-06-06 11:57:00,66.4,48.7,29.82,SE,135,3.2,-999.0,53,-99.99,,,0.01,Acu-Link.com,2013-06-06 15:57:00,
2013-06-06 12:12:00,66.2,49.1,29.82,SSE,157,2.7,-999.0,54,-99.99,,,0.01,Acu-Link.com,2013-06-06 16:12:00,
2013-06-06 12:27:00,66.4,49.7,29.82,SW,225,2.7,-999.0,55,-99.99,,,0.01,Acu-Link.com,2013-06-06 16:27:00,
2013-06-06 12:42:00,66.2,51.0,29.82,ESE,112,3.2,-999.0,58,-99.99,,,0.01,Acu-Link.com,2013-06-06 16:42:00,
2013-06-06 12:57:00,64.2,51.8,29.82,South,180,1.1,-999.0,64,-99.99,,,0.02,Acu-Link.com,2013-06-06 16:57:00,
2013-06-06 13:12:00,63.3,53.0,29.82,SE,135,3.2,-999.0,69,-99.99,,,0.02,Acu-Link.com,2013-06-06 17:12:00,
2013-06-06 13:27:00,62.4,52.1,29.82,SE,135,5.8,-999.0,69,-99.99,,,0.03,Acu-Link.com,2013-06-06 17:27:00,
2013-06-06 13:42:00,61.7,51.4,29.82,South,180,2.7,-999.0,69,-99.99,,,0.04,Acu-Link.com,2013-06-06 17:42:00,
2013-06-06 13:57:00,61.9,52.8,29.82,NE,45,2.7,-999.0,72,-99.99,,,0.05,Acu-Link.com,2013-06-06 17:57:00,
2013-06-06 14:12:00,62.4,51.3,29.82,SSW,202,3.7,-999.0,67,-99.99,,,0.05,Acu-Link.com,2013-06-06 18:12:00,
2013-06-06 14:28:00,62.4,50.9,29.82,SE,135,4.2,-999.0,66,-99.99,,,0.05,Acu-Link.com,2013-06-06 18:28:00,
2013-06-06 14:43:00,62.2,51.1,29.82,SSE,157,2.7,-999.0,67,-99.99,,,0.05,Acu-Link.com,2013-06-06 18:43:00,
2013-06-06 14:58:00,61.9,51.2,29.82,ESE,112,5.3,-999.0,68,-99.99,,,0.05,Acu-Link.com,2013-06-06 18:58:00,
2013-06-06 15:13:00,61.3,51.0,29.81,ESE,112,7.8,-999.0,69,-99.99,,,0.05,Acu-Link.com,2013-06-06 19:13:00,
2013-06-06 15:28:00,61.3,50.6,29.81,East,90,7.8,-999.0,68,-99.99,,,0.05,Acu-Link.com,2013-06-06 19:28:00,
2013-06-06 15:43:00,61.3,50.6,29.81,East,90,4.7,-999.0,68,-99.99,,,0.05,Acu-Link.com,2013-06-06 19:43:00,
2013-06-06 15:58:00,61.3,51.0,29.80,SE,135,3.7,-999.0,69,-99.99,,,0.05,Acu-Link.com,2013-06-06 19:58:00,
2013-06-06 16:13:00,61.3,52.2,29.80,ESE,112,7.3,-999.0,72,-99.99,,,0.05,Acu-Link.com,2013-06-06 20:13:00,
2013-06-06 16:28:00,60.6,52.6,29.79,ESE,112,10.4,-999.0,75,-99.99,,,0.05,Acu-Link.com,2013-06-06 20:28:00,
2013-06-06 16:44:00,60.8,53.2,29.79,ESE,112,3.7,-999.0,76,-99.99,,,0.06,Acu-Link.com,2013-06-06 20:44:00,
2013-06-06 16:59:00,61.0,53.7,29.78,ENE,67,2.7,-999.0,77,-99.99,,,0.06,Acu-Link.com,2013-06-06 20:59:00,
2013-06-06 17:14:00,61.3,53.3,29.78,ESE,112,3.7,-999.0,75,-99.99,,,0.06,Acu-Link.com,2013-06-06 21:14:00,
2013-06-06 17:29:00,61.5,53.5,29.77,ESE,112,6.3,-999.0,75,-99.99,,,0.06,Acu-Link.com,2013-06-06 21:29:00,